createdAt,value
2018-11-14T00:02:15.634Z,7.43
2018-11-14T00:04:43.034Z,6.57
2018-11-14T00:07:10.542Z,8.80
2018-11-14T00:09:38.050Z,8.53
2018-11-14T00:12:05.473Z,9.47
2018-11-14T00:14:32.869Z,7.50
2018-11-14T00:17:00.286Z,6.53
2018-11-14T00:19:27.770Z,5.90
2018-11-14T00:21:55.334Z,8.40
2018-11-14T00:24:22.769Z,7.63
2018-11-14T00:26:50.395Z,7.37
2018-11-14T00:29:17.750Z,7.40
2018-11-14T00:31:46.027Z,9.27
2018-11-14T00:34:13.482Z,8.40
2018-11-14T00:36:40.922Z,5.03
2018-11-14T00:39:09.341Z,5.73
2018-11-14T00:41:36.749Z,4.33
2018-11-14T00:44:04.144Z,5.53
2018-11-14T00:46:31.569Z,6.63
2018-11-14T00:48:58.992Z,6.73
2018-11-14T00:51:26.370Z,5.53
2018-11-14T00:53:53.794Z,6.53
2018-11-14T00:56:21.231Z,6.57
2018-11-14T00:58:48.803Z,7.43
2018-11-14T01:01:16.278Z,7.33
2018-11-14T01:03:43.721Z,6.20
2018-11-14T01:06:11.144Z,5.63
2018-11-14T01:08:38.607Z,8.17
2018-11-14T01:11:06.033Z,6.83
2018-11-14T01:13:33.459Z,7.13
2018-11-14T01:16:00.924Z,7.40
2018-11-14T01:18:28.355Z,5.77
2018-11-14T01:20:55.790Z,5.87
2018-11-14T01:23:23.250Z,7.73
2018-11-14T01:25:50.710Z,9.57
2018-11-14T01:28:18.085Z,7.47
2018-11-14T01:30:45.573Z,6.60
2018-11-14T01:33:12.975Z,5.57
2018-11-14T01:35:40.451Z,7.27
2018-11-14T01:38:07.864Z,5.80
2018-11-14T01:40:35.293Z,4.90
2018-11-14T01:43:02.721Z,7.10
2018-11-14T01:45:30.191Z,5.60
2018-11-14T01:47:57.622Z,8.60
2018-11-14T01:50:25.014Z,7.67
2018-11-14T01:52:52.522Z,6.73
2018-11-14T01:55:20.889Z,7.23
2018-11-14T01:57:48.306Z,7.93
2018-11-14T02:00:16.904Z,6.27
2018-11-14T02:02:44.335Z,3.40
2018-11-14T02:05:12.065Z,7.53
2018-11-14T02:07:39.566Z,5.77
2018-11-14T02:10:07.873Z,4.77
2018-11-14T02:12:35.447Z,7.90
2018-11-14T02:15:02.904Z,3.63
2018-11-14T02:17:30.318Z,6.73
2018-11-14T02:19:57.762Z,4.53
2018-11-14T02:22:47.214Z,5.63
2018-11-14T02:25:15.169Z,6.33
2018-11-14T02:27:42.734Z,10.57
2018-11-14T02:30:11.049Z,4.00
2018-11-14T02:32:38.466Z,4.43
2018-11-14T02:35:06.016Z,7.27
2018-11-14T02:37:33.649Z,5.40
2018-11-14T02:40:00.961Z,3.27
2018-11-14T02:42:28.390Z,3.80
2018-11-14T02:44:55.814Z,3.57
2018-11-14T02:47:23.232Z,4.40
2018-11-14T02:49:50.677Z,3.53
2018-11-14T02:52:18.132Z,4.90
2018-11-14T02:54:45.570Z,4.90
2018-11-14T02:57:12.985Z,6.80
2018-11-14T02:59:40.438Z,3.67
2018-11-14T03:02:07.990Z,5.60
2018-11-14T03:04:35.455Z,3.63
2018-11-14T03:07:02.928Z,6.90
2018-11-14T03:09:30.337Z,3.23
2018-11-14T03:11:57.781Z,7.40
2018-11-14T03:14:25.229Z,6.27
2018-11-14T03:16:52.674Z,3.43
2018-11-14T03:19:20.069Z,4.43
2018-11-14T03:21:47.526Z,3.83
2018-11-14T03:24:14.991Z,4.77
2018-11-14T03:26:42.466Z,4.77
2018-11-14T03:29:10.167Z,4.70
2018-11-14T03:31:37.669Z,5.57
2018-11-14T03:34:05.385Z,4.23
2018-11-14T03:36:32.850Z,4.37
2018-11-14T03:39:00.304Z,3.93
2018-11-14T03:41:27.679Z,4.67
2018-11-14T03:43:55.132Z,7.57
2018-11-14T03:46:22.575Z,7.83
2018-11-14T03:48:50.049Z,5.03
2018-11-14T03:51:17.494Z,6.30
2018-11-14T03:53:44.914Z,6.17
2018-11-14T03:56:12.377Z,4.17
2018-11-14T03:58:39.839Z,4.90
2018-11-14T04:01:07.972Z,5.80
2018-11-14T04:03:35.414Z,6.93
2018-11-14T04:06:02.899Z,4.63
2018-11-14T04:08:30.355Z,5.97
2018-11-14T04:10:57.783Z,8.13
2018-11-14T04:13:25.243Z,5.40
2018-11-14T04:15:52.666Z,6.07
2018-11-14T04:18:20.118Z,3.87
2018-11-14T04:20:47.535Z,3.70
2018-11-14T04:23:14.939Z,6.57
2018-11-14T04:25:42.336Z,4.73
2018-11-14T04:28:09.815Z,7.70
2018-11-14T04:30:37.209Z,5.63
2018-11-14T04:33:04.774Z,4.70
2018-11-14T04:35:32.237Z,6.70
2018-11-14T04:37:59.662Z,4.80
2018-11-14T04:40:27.163Z,9.27
2018-11-14T04:42:54.594Z,6.83
2018-11-14T04:45:23.265Z,5.00
2018-11-14T04:47:50.799Z,6.67
2018-11-14T04:50:19.870Z,5.80
2018-11-14T04:52:48.105Z,4.43
2018-11-14T04:55:16.586Z,7.33
2018-11-14T04:57:44.416Z,7.10
2018-11-14T05:00:12.630Z,7.10
2018-11-14T05:02:41.129Z,10.97
2018-11-14T05:05:09.602Z,10.73
2018-11-14T05:07:37.125Z,8.10
2018-11-14T05:10:05.378Z,6.37
2018-11-14T05:12:32.801Z,7.03
2018-11-14T05:15:00.284Z,9.33
2018-11-14T05:17:27.681Z,12.50
2018-11-14T05:19:55.098Z,6.80
2018-11-14T05:22:22.557Z,9.80
2018-11-14T05:24:50.074Z,9.97
2018-11-14T05:27:17.450Z,7.10
2018-11-14T05:29:44.854Z,8.87
2018-11-14T05:32:12.263Z,6.03
2018-11-14T05:34:39.758Z,6.97
2018-11-14T05:37:07.174Z,8.97
2018-11-14T05:39:34.689Z,13.60
2018-11-14T05:42:02.132Z,6.00
2018-11-14T05:44:29.537Z,7.60
2018-11-14T05:46:56.988Z,6.53
2018-11-14T05:49:24.446Z,7.07
2018-11-14T05:51:51.826Z,8.03
2018-11-14T05:54:19.316Z,6.30
2018-11-14T05:56:46.765Z,9.30
2018-11-14T05:59:14.235Z,5.53
2018-11-14T06:01:41.684Z,6.60
2018-11-14T06:04:10.047Z,8.00
2018-11-14T06:06:37.450Z,4.27
2018-11-14T06:09:07.094Z,5.43
2018-11-14T06:11:34.534Z,8.07
2018-11-14T06:14:02.846Z,7.07
2018-11-14T06:16:30.324Z,6.03
2018-11-14T06:18:57.764Z,9.23
2018-11-14T06:21:25.203Z,6.17
2018-11-14T06:23:52.652Z,12.57
2018-11-14T06:26:20.164Z,10.43
2018-11-14T06:28:47.592Z,8.33
2018-11-14T06:31:15.023Z,4.77
2018-11-14T06:33:42.573Z,10.73
2018-11-14T06:36:10.031Z,8.57
2018-11-14T06:38:37.459Z,7.07
2018-11-14T06:41:04.954Z,10.57
2018-11-14T06:43:32.334Z,8.47
2018-11-14T06:45:59.714Z,5.77
2018-11-14T06:48:27.126Z,5.87
2018-11-14T06:50:54.514Z,9.93
2018-11-14T06:53:21.898Z,6.53
2018-11-14T06:55:49.335Z,11.07
2018-11-14T06:58:16.726Z,11.47
2018-11-14T07:00:44.149Z,6.00
2018-11-14T07:03:11.611Z,8.63
2018-11-14T07:05:39.989Z,7.43
2018-11-14T07:08:07.314Z,10.13
2018-11-14T07:10:35.934Z,11.50
2018-11-14T07:13:04.233Z,7.83
2018-11-14T07:15:31.708Z,7.67
2018-11-14T07:17:59.173Z,12.53
2018-11-14T07:20:27.961Z,8.67
2018-11-14T07:22:55.337Z,9.00
2018-11-14T07:25:22.763Z,5.10
2018-11-14T07:27:50.200Z,7.57
2018-11-14T07:30:19.046Z,9.17
2018-11-14T07:32:47.869Z,5.47
2018-11-14T07:35:16.102Z,6.47
2018-11-14T07:37:46.574Z,7.03
2018-11-14T07:40:14.336Z,12.40
2018-11-14T07:42:42.695Z,5.47
2018-11-14T07:45:11.865Z,10.80
2018-11-14T07:47:39.324Z,10.57
2018-11-14T07:50:08.210Z,9.97
2018-11-14T07:52:35.665Z,11.80
2018-11-14T07:55:03.111Z,9.30
2018-11-14T07:57:30.507Z,7.83
2018-11-14T07:59:57.898Z,7.87
2018-11-14T08:02:25.303Z,9.50
2018-11-14T08:04:52.689Z,9.10
2018-11-14T08:07:20.069Z,9.60
2018-11-14T08:09:47.481Z,5.50
2018-11-14T08:12:14.897Z,7.70
2018-11-14T08:14:42.281Z,5.83
2018-11-14T08:17:09.685Z,10.60
2018-11-14T08:19:37.079Z,9.73
2018-11-14T08:22:04.869Z,6.33
2018-11-14T08:24:32.382Z,8.83
2018-11-14T08:26:59.789Z,10.23
2018-11-14T08:29:27.244Z,4.70
2018-11-14T08:31:54.744Z,10.57
2018-11-14T08:34:22.165Z,6.23
2018-11-14T08:36:49.546Z,9.40
2018-11-14T08:39:17.122Z,8.90
2018-11-14T08:53:45.766Z,7.97
2018-11-14T08:56:13.174Z,9.13
2018-11-14T08:58:40.627Z,9.57
2018-11-14T09:01:08.131Z,6.57
2018-11-14T09:03:42.324Z,6.33
2018-11-14T09:06:10.143Z,7.00
2018-11-14T09:08:37.550Z,10.97
2018-11-14T09:11:12.361Z,9.50
2018-11-14T09:13:41.906Z,8.83
2018-11-14T09:16:10.005Z,6.10
2018-11-14T09:18:37.489Z,13.40
2018-11-14T09:21:05.201Z,5.90
2018-11-14T09:23:32.638Z,12.83
2018-11-14T09:26:00.083Z,7.10
2018-11-14T09:28:27.771Z,9.30
2018-11-14T09:30:55.985Z,6.03
2018-11-14T09:33:23.450Z,6.13
2018-11-14T09:35:50.832Z,5.13
2018-11-14T09:38:18.241Z,9.13
2018-11-14T09:40:45.732Z,7.13
2018-11-14T09:43:13.075Z,8.07
2018-11-14T09:45:40.469Z,6.47
2018-11-14T09:48:07.912Z,6.00
2018-11-14T09:50:35.315Z,8.07
2018-11-14T09:53:04.913Z,10.73
2018-11-14T09:55:32.317Z,9.83
2018-11-14T09:57:59.730Z,8.40
2018-11-14T10:00:28.405Z,5.40
2018-11-14T10:02:56.815Z,9.77
2018-11-14T10:05:24.760Z,10.67
2018-11-14T10:07:52.205Z,10.27
2018-11-14T10:10:20.741Z,9.67
2018-11-14T10:12:49.149Z,8.10
2018-11-14T10:15:20.510Z,9.47
2018-11-14T10:17:48.321Z,4.90
2018-11-14T10:20:17.078Z,10.00
2018-11-14T10:22:44.754Z,5.73
2018-11-14T10:25:12.964Z,6.27
2018-11-14T10:27:41.242Z,7.37
2018-11-14T10:30:09.612Z,13.50
2018-11-14T10:32:37.022Z,6.50
2018-11-14T10:35:04.873Z,8.10
2018-11-14T10:37:32.306Z,8.10
2018-11-14T10:39:59.722Z,13.33
2018-11-14T10:42:28.049Z,10.40
2018-11-14T10:44:55.441Z,8.07
2018-11-14T10:47:22.877Z,5.83
2018-11-14T10:49:50.248Z,8.43
2018-11-14T10:52:17.636Z,9.07
2018-11-14T10:54:45.060Z,10.33
2018-11-14T10:57:12.441Z,5.37
2018-11-14T10:59:39.867Z,8.67
2018-11-14T11:02:12.666Z,6.10
2018-11-14T11:04:45.558Z,8.30
2018-11-14T11:07:18.222Z,11.17
2018-11-14T11:09:50.926Z,8.53
2018-11-14T11:12:23.616Z,4.80
2018-11-14T11:14:56.402Z,8.83
2018-11-14T11:17:29.065Z,10.10
2018-11-14T11:19:58.613Z,8.73
2018-11-14T11:22:25.989Z,5.47
2018-11-14T11:24:53.410Z,5.97
2018-11-14T11:27:20.822Z,7.20
2018-11-14T11:29:48.286Z,7.67
2018-11-14T11:32:15.755Z,7.43
2018-11-14T11:34:43.158Z,8.30
2018-11-14T11:37:10.559Z,7.00
2018-11-14T11:39:37.984Z,10.80
2018-11-14T11:42:05.450Z,7.63
2018-11-14T11:44:32.946Z,4.40
2018-11-14T11:47:00.302Z,8.67
2018-11-14T11:49:27.676Z,6.10
2018-11-14T11:51:55.089Z,7.03
2018-11-14T11:54:22.490Z,7.60
2018-11-14T11:56:49.885Z,7.47
2018-11-14T11:59:17.301Z,7.03
2018-11-14T12:01:44.701Z,8.97
2018-11-14T12:04:12.079Z,10.13
2018-11-14T12:06:39.469Z,11.70
2018-11-14T12:09:08.094Z,9.30
2018-11-14T12:11:35.479Z,8.03
2018-11-14T12:14:02.914Z,7.70
2018-11-14T12:16:30.349Z,6.97
2018-11-14T12:18:57.766Z,6.33
2018-11-14T12:21:25.141Z,5.80
2018-11-14T12:23:52.568Z,12.93
2018-11-14T12:26:19.955Z,7.90
2018-11-14T12:28:47.350Z,6.57
2018-11-14T12:31:14.912Z,6.83
2018-11-14T12:33:42.126Z,5.93
2018-11-14T12:36:10.250Z,5.03
2018-11-14T12:38:37.695Z,11.17
2018-11-14T12:41:05.094Z,6.47
2018-11-14T12:43:32.475Z,4.17
2018-11-14T12:45:59.903Z,7.40
2018-11-14T12:48:27.780Z,8.63
2018-11-14T12:50:55.192Z,8.00
2018-11-14T12:53:22.800Z,13.00
2018-11-14T12:55:50.194Z,5.27
2018-11-14T12:58:17.634Z,8.93
2018-11-14T13:00:45.274Z,7.73
2018-11-14T13:03:12.704Z,6.33
2018-11-14T13:05:40.074Z,6.70
2018-11-14T13:08:07.491Z,4.83
2018-11-14T13:10:34.873Z,8.13
2018-11-14T13:13:02.267Z,4.53
2018-11-14T13:15:29.735Z,4.10
2018-11-14T13:17:57.173Z,8.03
2018-11-14T13:20:25.204Z,10.70
2018-11-14T13:22:52.610Z,4.77
2018-11-14T13:25:20.029Z,7.50
2018-11-14T13:27:48.166Z,10.63
2018-11-14T13:30:17.157Z,8.30
2018-11-14T13:32:45.323Z,12.20
2018-11-14T13:35:14.100Z,12.00
2018-11-14T13:37:42.226Z,9.43
2018-11-14T13:40:10.374Z,8.07
2018-11-14T13:42:37.794Z,10.00
2018-11-14T13:45:06.015Z,8.17
2018-11-14T13:47:33.404Z,10.03
2018-11-14T13:50:00.839Z,8.03
2018-11-14T13:52:28.267Z,7.30
2018-11-14T13:54:55.658Z,8.33
2018-11-14T13:57:23.030Z,8.23
2018-11-14T13:59:50.553Z,9.23
2018-11-14T14:02:17.938Z,7.97
2018-11-14T14:04:45.378Z,13.10
2018-11-14T14:07:12.787Z,8.30
2018-11-14T14:09:40.173Z,10.90
2018-11-14T14:12:07.590Z,10.07
2018-11-14T14:14:34.979Z,7.07
2018-11-14T14:17:02.391Z,8.30
2018-11-14T14:19:29.780Z,5.27
2018-11-14T14:21:57.257Z,5.33
2018-11-14T14:24:24.660Z,10.20
2018-11-14T14:26:52.068Z,21.80
2018-11-14T14:29:19.490Z,14.80
2018-11-14T14:31:46.905Z,10.33
2018-11-14T14:34:14.318Z,11.50
2018-11-14T14:36:41.774Z,10.23
2018-11-14T14:39:10.241Z,11.60
2018-11-14T14:41:37.645Z,11.27
2018-11-14T14:44:05.091Z,9.13
2018-11-14T14:46:32.495Z,6.43
2018-11-14T14:48:59.991Z,6.23
2018-11-14T14:51:27.378Z,5.53
2018-11-14T14:53:54.787Z,8.60
2018-11-14T14:56:22.241Z,10.80
2018-11-14T14:58:49.718Z,9.47
2018-11-14T15:01:17.177Z,5.93
2018-11-14T15:03:44.582Z,8.77
2018-11-14T15:06:12.037Z,10.23
2018-11-14T15:08:39.448Z,11.67
2018-11-14T15:11:06.858Z,10.97
2018-11-14T15:13:34.279Z,13.20
2018-11-14T15:16:01.738Z,8.57
2018-11-14T15:18:29.138Z,9.27
2018-11-14T15:20:56.569Z,11.37
2018-11-14T15:23:23.988Z,14.60
2018-11-14T15:25:51.369Z,9.60
2018-11-14T15:28:18.834Z,10.33
2018-11-14T15:30:46.227Z,10.77
2018-11-14T15:33:13.635Z,15.77
2018-11-14T15:35:41.095Z,8.13
2018-11-14T15:38:08.630Z,11.00
2018-11-14T15:40:36.167Z,12.30
2018-11-14T15:43:03.635Z,15.53
2018-11-14T15:45:31.332Z,10.27
2018-11-14T15:47:59.066Z,10.50
2018-11-14T15:50:27.780Z,17.43
2018-11-14T15:52:56.005Z,9.60
2018-11-14T15:55:23.667Z,13.90
2018-11-14T15:57:51.189Z,11.43
2018-11-14T16:00:20.044Z,7.80
2018-11-14T16:02:47.496Z,12.00
2018-11-14T16:05:16.142Z,13.07
2018-11-14T16:07:44.636Z,15.27
2018-11-14T16:10:14.157Z,14.90
2018-11-14T16:12:42.150Z,13.63
2018-11-14T16:15:11.231Z,15.33
2018-11-14T16:17:39.463Z,14.07
2018-11-14T16:20:08.067Z,13.63
2018-11-14T16:22:35.753Z,19.03
2018-11-14T16:25:03.528Z,17.77
2018-11-14T16:27:34.588Z,10.93
2018-11-14T16:30:02.137Z,16.10
2018-11-14T16:32:29.881Z,19.40
2018-11-14T16:35:00.100Z,16.67
2018-11-14T16:37:27.657Z,16.03
2018-11-14T16:39:55.083Z,12.47
2018-11-14T16:42:26.099Z,14.90
2018-11-14T16:44:53.503Z,15.17
2018-11-14T16:47:20.960Z,15.60
2018-11-14T16:49:48.410Z,12.33
2018-11-14T16:52:15.832Z,15.27
2018-11-14T16:54:43.241Z,18.40
2018-11-14T16:57:10.674Z,19.57
2018-11-14T16:59:38.090Z,24.57
2018-11-14T17:02:05.562Z,24.83
2018-11-14T17:04:33.002Z,24.70
2018-11-14T17:07:00.428Z,27.90
2018-11-14T17:09:27.867Z,18.37
2018-11-14T17:11:55.408Z,26.13
2018-11-14T17:14:22.854Z,19.33
2018-11-14T17:16:50.349Z,24.20
2018-11-14T17:19:17.803Z,21.23
2018-11-14T17:21:46.103Z,21.03
2018-11-14T17:24:14.305Z,21.20
2018-11-14T17:26:41.742Z,21.90
2018-11-14T17:29:09.222Z,21.43
2018-11-14T17:31:36.795Z,21.73
2018-11-14T17:34:04.280Z,21.57
2018-11-14T17:36:31.691Z,28.00
2018-11-14T17:38:59.105Z,26.23
2018-11-14T17:41:26.553Z,20.77
2018-11-14T17:43:53.984Z,22.33
2018-11-14T17:46:21.384Z,19.93
2018-11-14T17:48:48.965Z,26.57
2018-11-14T17:51:16.358Z,24.83
2018-11-14T17:53:43.788Z,24.67
2018-11-14T17:56:11.582Z,23.77
2018-11-14T17:58:39.067Z,24.93
2018-11-14T18:01:06.539Z,24.20
2018-11-14T18:03:33.979Z,30.90
2018-11-14T18:06:01.389Z,29.17
2018-11-14T18:08:28.810Z,34.47
2018-11-14T18:10:56.218Z,29.00
2018-11-14T18:13:23.598Z,25.13
2018-11-14T18:15:51.054Z,26.10
2018-11-14T18:18:18.541Z,31.07
2018-11-14T18:20:46.085Z,28.63
2018-11-14T18:23:13.511Z,27.13
2018-11-14T18:25:40.947Z,26.57
2018-11-14T18:28:08.337Z,26.00
2018-11-14T18:30:35.788Z,25.53
2018-11-14T18:33:03.330Z,28.90
2018-11-14T18:35:31.717Z,25.13
2018-11-14T18:37:59.882Z,29.87
2018-11-14T18:40:31.776Z,34.27
2018-11-14T18:42:59.184Z,32.40
2018-11-14T18:45:28.002Z,40.03
2018-11-14T18:47:56.230Z,41.60
2018-11-14T18:50:24.477Z,39.60
2018-11-14T18:52:52.113Z,39.60
2018-11-14T18:55:20.845Z,37.87
2018-11-14T18:57:48.778Z,37.03
2018-11-14T19:00:19.603Z,39.50
2018-11-14T19:02:47.109Z,27.27
2018-11-14T19:05:15.136Z,32.67
2018-11-14T19:07:42.732Z,42.20
2018-11-14T19:10:10.919Z,30.20
2018-11-14T19:12:38.575Z,33.47
2018-11-14T19:15:07.600Z,26.10
2018-11-14T19:17:35.151Z,25.03
2018-11-14T19:20:02.693Z,29.27
2018-11-14T19:22:31.624Z,35.20
2018-11-14T19:25:00.884Z,31.10
2018-11-14T19:27:28.582Z,29.30
2018-11-14T19:29:56.062Z,31.63
2018-11-14T19:32:23.795Z,28.80
2018-11-14T19:34:51.450Z,31.20
2018-11-14T19:37:18.896Z,26.47
2018-11-14T19:39:46.342Z,40.53
2018-11-14T19:42:15.290Z,31.10
2018-11-14T19:44:42.924Z,27.30
2018-11-14T19:47:10.369Z,30.10
2018-11-14T19:49:37.813Z,33.30
2018-11-14T19:52:05.239Z,31.70
2018-11-14T19:54:32.914Z,32.53
2018-11-14T19:57:00.340Z,29.60
2018-11-14T19:59:27.759Z,31.63
2018-11-14T20:01:55.250Z,38.83
2018-11-14T20:04:22.916Z,42.50
2018-11-14T20:06:50.330Z,36.67
2018-11-14T20:09:17.762Z,34.27
2018-11-14T20:11:45.860Z,35.67
2018-11-14T20:14:13.278Z,37.93
2018-11-14T20:16:40.693Z,31.77
2018-11-14T20:19:08.350Z,37.10
2018-11-14T20:21:36.215Z,36.17
2018-11-14T20:24:03.744Z,34.03
2018-11-14T20:26:31.172Z,37.10
2018-11-14T20:28:58.558Z,39.37
2018-11-14T20:31:26.357Z,32.60
2018-11-14T20:33:53.836Z,38.53
2018-11-14T20:36:21.747Z,38.53
2018-11-14T20:38:49.182Z,33.47
2018-11-14T20:41:17.261Z,35.27
2018-11-14T20:43:44.670Z,31.83
2018-11-14T20:46:12.074Z,38.50
2018-11-14T20:48:39.491Z,33.23
2018-11-14T20:51:06.894Z,41.70
2018-11-14T20:53:34.301Z,30.83
2018-11-14T20:56:01.707Z,40.73
2018-11-14T20:58:29.830Z,36.67
2018-11-14T21:00:57.299Z,34.00
2018-11-14T21:03:24.750Z,32.17
2018-11-14T21:05:52.264Z,39.70
2018-11-14T21:08:19.606Z,33.60
2018-11-14T21:10:47.020Z,42.53
2018-11-14T21:13:14.457Z,39.47
2018-11-14T21:15:41.890Z,40.23
2018-11-14T21:18:09.333Z,37.77
2018-11-14T21:20:36.776Z,42.53
2018-11-14T21:23:04.374Z,45.93
2018-11-14T21:25:31.765Z,43.57
2018-11-14T21:27:59.183Z,40.97
2018-11-14T21:30:27.908Z,38.40
2018-11-14T21:32:55.311Z,39.40
2018-11-14T21:35:25.573Z,42.67
2018-11-14T21:37:56.065Z,42.83
2018-11-14T21:40:23.469Z,42.40
2018-11-14T21:42:50.909Z,37.43
2018-11-14T21:45:19.656Z,44.37
2018-11-14T21:47:52.444Z,39.07
2018-11-14T21:50:20.987Z,51.47
2018-11-14T21:52:48.826Z,45.80
2018-11-14T21:55:16.271Z,47.77
2018-11-14T21:57:43.737Z,60.97
2018-11-14T22:00:13.647Z,57.53
2018-11-14T22:02:41.783Z,47.47
2018-11-14T22:05:09.990Z,50.87
2018-11-14T22:07:37.778Z,48.50
2018-11-14T22:10:06.834Z,56.57
2018-11-14T22:12:34.270Z,54.87
2018-11-14T22:15:01.820Z,59.97
2018-11-14T22:17:29.398Z,63.93
2018-11-14T22:19:56.839Z,60.47
2018-11-14T22:22:24.250Z,53.77
2018-11-14T22:24:51.641Z,55.07
2018-11-14T22:27:19.062Z,60.20
2018-11-14T22:29:46.439Z,51.67
2018-11-14T22:32:13.813Z,54.07
2018-11-14T22:34:41.262Z,50.23
2018-11-14T22:37:08.605Z,55.37
2018-11-14T22:39:35.998Z,48.50
2018-11-14T22:42:03.416Z,48.63
2018-11-14T22:44:30.844Z,44.73
2018-11-14T22:46:58.243Z,46.23
2018-11-14T22:49:25.652Z,41.00
2018-11-14T22:51:53.047Z,51.37
2018-11-14T22:54:20.419Z,43.80
2018-11-14T22:56:48.098Z,43.97
2018-11-14T22:59:15.461Z,45.40
2018-11-14T23:01:42.854Z,52.80
2018-11-14T23:04:10.285Z,46.63
2018-11-14T23:06:37.736Z,54.90
2018-11-14T23:09:07.210Z,51.57
2018-11-14T23:11:34.629Z,57.37
2018-11-14T23:14:02.027Z,57.20
2018-11-14T23:16:29.423Z,47.20
2018-11-14T23:18:56.876Z,51.93
2018-11-14T23:21:24.236Z,50.10
2018-11-14T23:23:51.629Z,52.17
2018-11-14T23:26:19.058Z,55.77
2018-11-14T23:28:46.431Z,49.20
2018-11-14T23:31:13.849Z,46.80
2018-11-14T23:33:41.246Z,43.50
2018-11-14T23:36:08.608Z,54.50
2018-11-14T23:38:35.968Z,52.60
2018-11-14T23:41:03.394Z,47.43
2018-11-14T23:43:30.773Z,61.73
2018-11-14T23:45:58.153Z,53.40
2018-11-14T23:48:25.637Z,57.53
2018-11-14T23:50:53.031Z,53.00
2018-11-14T23:53:20.400Z,50.30
2018-11-14T23:55:47.810Z,50.83
2018-11-14T23:58:15.186Z,58.33
